sensor_id;sensor_type;location;lat;lon;timestamp;P1;durP1;ratioP1;P2;durP2;ratioP2
41946;SDS011;27638;42.184;24.848;2024-01-06T00:02:15;29.58;;;17.65;;
41946;SDS011;27638;42.184;24.848;2024-01-06T00:04:40;26.77;;;16.98;;
41946;SDS011;27638;42.184;24.848;2024-01-06T00:07:06;30.17;;;17.10;;
41946;SDS011;27638;42.184;24.848;2024-01-06T00:09:31;28.98;;;17.38;;
41946;SDS011;27638;42.184;24.848;2024-01-06T00:11:56;33.53;;;18.17;;
41946;SDS011;27638;42.184;24.848;2024-01-06T00:14:22;28.45;;;18.33;;
41946;SDS011;27638;42.184;24.848;2024-01-06T00:16:47;32.63;;;19.40;;
41946;SDS011;27638;42.184;24.848;2024-01-06T00:19:13;27.95;;;18.90;;
41946;SDS011;27638;42.184;24.848;2024-01-06T00:21:38;34.53;;;19.58;;
41946;SDS011;27638;42.184;24.848;2024-01-06T00:24:04;34.95;;;19.00;;
41946;SDS011;27638;42.184;24.848;2024-01-06T00:26:29;33.50;;;22.42;;
41946;SDS011;27638;42.184;24.848;2024-01-06T00:28:55;33.20;;;22.15;;
41946;SDS011;27638;42.184;24.848;2024-01-06T00:31:20;39.72;;;29.75;;
41946;SDS011;27638;42.184;24.848;2024-01-06T00:33:46;34.75;;;22.20;;
41946;SDS011;27638;42.184;24.848;2024-01-06T00:36:11;42.13;;;23.15;;
41946;SDS011;27638;42.184;24.848;2024-01-06T00:38:37;37.42;;;23.75;;
41946;SDS011;27638;42.184;24.848;2024-01-06T00:41:02;32.17;;;21.90;;
41946;SDS011;27638;42.184;24.848;2024-01-06T00:43:28;34.65;;;22.17;;
41946;SDS011;27638;42.184;24.848;2024-01-06T00:45:54;31.40;;;19.60;;
41946;SDS011;27638;42.184;24.848;2024-01-06T00:48:19;27.73;;;19.02;;
41946;SDS011;27638;42.184;24.848;2024-01-06T00:50:45;31.40;;;19.27;;
41946;SDS011;27638;42.184;24.848;2024-01-06T00:53:11;28.00;;;18.80;;
41946;SDS011;27638;42.184;24.848;2024-01-06T00:55:37;30.95;;;18.75;;
41946;SDS011;27638;42.184;24.848;2024-01-06T00:58:02;29.20;;;17.55;;
41946;SDS011;27638;42.184;24.848;2024-01-06T01:00:28;32.78;;;18.45;;
41946;SDS011;27638;42.184;24.848;2024-01-06T01:02:53;35.15;;;17.80;;
41946;SDS011;27638;42.184;24.848;2024-01-06T01:05:18;29.50;;;18.63;;
41946;SDS011;27638;42.184;24.848;2024-01-06T01:07:44;26.15;;;16.55;;
41946;SDS011;27638;42.184;24.848;2024-01-06T01:10:09;29.52;;;16.45;;
41946;SDS011;27638;42.184;24.848;2024-01-06T01:12:35;26.60;;;16.38;;
41946;SDS011;27638;42.184;24.848;2024-01-06T01:15:01;28.48;;;17.77;;
41946;SDS011;27638;42.184;24.848;2024-01-06T01:17:28;29.15;;;16.80;;
41946;SDS011;27638;42.184;24.848;2024-01-06T01:19:54;31.45;;;17.15;;
41946;SDS011;27638;42.184;24.848;2024-01-06T01:22:20;27.25;;;16.02;;
41946;SDS011;27638;42.184;24.848;2024-01-06T01:24:46;29.63;;;17.80;;
41946;SDS011;27638;42.184;24.848;2024-01-06T01:27:11;30.92;;;19.45;;
41946;SDS011;27638;42.184;24.848;2024-01-06T01:29:37;30.90;;;17.30;;
41946;SDS011;27638;42.184;24.848;2024-01-06T01:32:02;30.90;;;18.35;;
41946;SDS011;27638;42.184;24.848;2024-01-06T01:34:28;35.47;;;20.92;;
41946;SDS011;27638;42.184;24.848;2024-01-06T01:36:53;31.23;;;18.73;;
41946;SDS011;27638;42.184;24.848;2024-01-06T01:39:19;28.73;;;18.17;;
41946;SDS011;27638;42.184;24.848;2024-01-06T01:41:44;33.60;;;18.65;;
41946;SDS011;27638;42.184;24.848;2024-01-06T01:44:10;29.50;;;17.88;;
41946;SDS011;27638;42.184;24.848;2024-01-06T01:46:35;29.38;;;18.67;;
41946;SDS011;27638;42.184;24.848;2024-01-06T01:49:01;31.42;;;19.23;;
41946;SDS011;27638;42.184;24.848;2024-01-06T01:51:31;27.90;;;16.13;;
41946;SDS011;27638;42.184;24.848;2024-01-06T01:53:59;27.70;;;17.83;;
41946;SDS011;27638;42.184;24.848;2024-01-06T01:56:27;30.40;;;20.13;;
41946;SDS011;27638;42.184;24.848;2024-01-06T01:58:53;34.33;;;19.15;;
41946;SDS011;27638;42.184;24.848;2024-01-06T02:01:20;32.60;;;19.48;;
41946;SDS011;27638;42.184;24.848;2024-01-06T02:03:45;31.42;;;20.33;;
41946;SDS011;27638;42.184;24.848;2024-01-06T02:06:11;33.78;;;19.58;;
41946;SDS011;27638;42.184;24.848;2024-01-06T02:08:37;28.13;;;19.25;;
41946;SDS011;27638;42.184;24.848;2024-01-06T02:11:03;31.30;;;19.23;;
41946;SDS011;27638;42.184;24.848;2024-01-06T02:13:33;29.70;;;19.05;;
41946;SDS011;27638;42.184;24.848;2024-01-06T02:16:00;27.95;;;18.25;;
41946;SDS011;27638;42.184;24.848;2024-01-06T02:18:26;26.80;;;16.25;;
41946;SDS011;27638;42.184;24.848;2024-01-06T02:20:51;25.38;;;14.80;;
41946;SDS011;27638;42.184;24.848;2024-01-06T02:23:22;20.00;;;12.98;;
41946;SDS011;27638;42.184;24.848;2024-01-06T02:25:47;23.30;;;13.85;;
41946;SDS011;27638;42.184;24.848;2024-01-06T02:28:13;27.17;;;15.55;;
41946;SDS011;27638;42.184;24.848;2024-01-06T02:30:38;25.80;;;15.73;;
41946;SDS011;27638;42.184;24.848;2024-01-06T02:33:04;26.92;;;15.13;;
41946;SDS011;27638;42.184;24.848;2024-01-06T02:35:29;22.20;;;15.35;;
41946;SDS011;27638;42.184;24.848;2024-01-06T02:37:54;25.83;;;15.63;;
41946;SDS011;27638;42.184;24.848;2024-01-06T02:40:20;29.10;;;16.27;;
41946;SDS011;27638;42.184;24.848;2024-01-06T02:42:45;27.80;;;16.23;;
41946;SDS011;27638;42.184;24.848;2024-01-06T02:45:11;26.00;;;14.80;;
41946;SDS011;27638;42.184;24.848;2024-01-06T02:47:36;23.05;;;14.18;;
41946;SDS011;27638;42.184;24.848;2024-01-06T02:50:02;25.88;;;16.20;;
41946;SDS011;27638;42.184;24.848;2024-01-06T02:52:27;27.40;;;16.15;;
41946;SDS011;27638;42.184;24.848;2024-01-06T02:54:53;24.20;;;14.80;;
41946;SDS011;27638;42.184;24.848;2024-01-06T02:57:18;29.23;;;17.88;;
41946;SDS011;27638;42.184;24.848;2024-01-06T02:59:44;26.67;;;16.15;;
41946;SDS011;27638;42.184;24.848;2024-01-06T03:02:10;24.55;;;15.90;;
41946;SDS011;27638;42.184;24.848;2024-01-06T03:04:36;29.58;;;15.65;;
41946;SDS011;27638;42.184;24.848;2024-01-06T03:07:02;28.70;;;17.85;;
41946;SDS011;27638;42.184;24.848;2024-01-06T03:09:27;31.65;;;17.42;;
41946;SDS011;27638;42.184;24.848;2024-01-06T03:11:53;28.55;;;17.63;;
41946;SDS011;27638;42.184;24.848;2024-01-06T03:14:18;29.67;;;17.67;;
41946;SDS011;27638;42.184;24.848;2024-01-06T03:16:44;32.58;;;17.25;;
41946;SDS011;27638;42.184;24.848;2024-01-06T03:19:09;29.85;;;17.77;;
41946;SDS011;27638;42.184;24.848;2024-01-06T03:21:34;30.42;;;16.05;;
41946;SDS011;27638;42.184;24.848;2024-01-06T03:24:00;30.77;;;16.35;;
41946;SDS011;27638;42.184;24.848;2024-01-06T03:26:25;26.30;;;14.43;;
41946;SDS011;27638;42.184;24.848;2024-01-06T03:28:51;32.45;;;16.30;;
41946;SDS011;27638;42.184;24.848;2024-01-06T03:31:16;25.52;;;15.15;;
41946;SDS011;27638;42.184;24.848;2024-01-06T03:33:44;27.60;;;15.70;;
41946;SDS011;27638;42.184;24.848;2024-01-06T03:36:12;30.17;;;14.93;;
41946;SDS011;27638;42.184;24.848;2024-01-06T03:38:37;27.25;;;15.75;;
41946;SDS011;27638;42.184;24.848;2024-01-06T03:41:03;28.20;;;15.63;;
41946;SDS011;27638;42.184;24.848;2024-01-06T03:43:28;25.17;;;15.88;;
41946;SDS011;27638;42.184;24.848;2024-01-06T03:45:54;29.42;;;16.38;;
41946;SDS011;27638;42.184;24.848;2024-01-06T03:48:21;30.27;;;16.40;;
41946;SDS011;27638;42.184;24.848;2024-01-06T03:50:47;38.97;;;19.38;;
41946;SDS011;27638;42.184;24.848;2024-01-06T03:53:12;36.00;;;20.10;;
41946;SDS011;27638;42.184;24.848;2024-01-06T03:55:38;31.85;;;19.73;;
41946;SDS011;27638;42.184;24.848;2024-01-06T03:58:03;32.95;;;19.35;;
41946;SDS011;27638;42.184;24.848;2024-01-06T04:00:28;30.50;;;17.88;;
41946;SDS011;27638;42.184;24.848;2024-01-06T04:02:54;31.08;;;17.48;;
41946;SDS011;27638;42.184;24.848;2024-01-06T04:05:19;24.17;;;16.90;;
41946;SDS011;27638;42.184;24.848;2024-01-06T04:07:45;26.05;;;16.65;;
41946;SDS011;27638;42.184;24.848;2024-01-06T04:10:10;24.25;;;15.57;;
41946;SDS011;27638;42.184;24.848;2024-01-06T04:12:36;27.67;;;16.20;;
41946;SDS011;27638;42.184;24.848;2024-01-06T04:15:01;24.90;;;15.05;;
41946;SDS011;27638;42.184;24.848;2024-01-06T04:17:26;31.17;;;18.25;;
41946;SDS011;27638;42.184;24.848;2024-01-06T04:19:52;26.40;;;16.67;;
41946;SDS011;27638;42.184;24.848;2024-01-06T04:22:18;25.95;;;16.67;;
41946;SDS011;27638;42.184;24.848;2024-01-06T04:24:44;36.08;;;18.92;;
41946;SDS011;27638;42.184;24.848;2024-01-06T04:27:09;32.92;;;18.80;;
41946;SDS011;27638;42.184;24.848;2024-01-06T04:29:35;34.47;;;19.75;;
41946;SDS011;27638;42.184;24.848;2024-01-06T04:32:00;34.47;;;19.90;;
41946;SDS011;27638;42.184;24.848;2024-01-06T04:34:26;34.15;;;19.38;;
41946;SDS011;27638;42.184;24.848;2024-01-06T04:36:51;27.23;;;16.98;;
41946;SDS011;27638;42.184;24.848;2024-01-06T04:39:17;25.05;;;15.43;;
41946;SDS011;27638;42.184;24.848;2024-01-06T04:41:42;22.58;;;14.27;;
41946;SDS011;27638;42.184;24.848;2024-01-06T04:44:08;23.85;;;14.52;;
41946;SDS011;27638;42.184;24.848;2024-01-06T04:46:33;20.60;;;14.45;;
41946;SDS011;27638;42.184;24.848;2024-01-06T04:48:58;22.60;;;15.52;;
41946;SDS011;27638;42.184;24.848;2024-01-06T04:51:24;24.25;;;15.55;;
41946;SDS011;27638;42.184;24.848;2024-01-06T04:53:49;22.55;;;14.68;;
41946;SDS011;27638;42.184;24.848;2024-01-06T04:56:15;23.70;;;16.05;;
41946;SDS011;27638;42.184;24.848;2024-01-06T04:58:40;25.63;;;16.75;;
41946;SDS011;27638;42.184;24.848;2024-01-06T05:01:06;22.75;;;14.48;;
41946;SDS011;27638;42.184;24.848;2024-01-06T05:03:31;23.85;;;12.77;;
41946;SDS011;27638;42.184;24.848;2024-01-06T05:05:57;22.38;;;13.40;;
41946;SDS011;27638;42.184;24.848;2024-01-06T05:08:22;20.33;;;12.60;;
41946;SDS011;27638;42.184;24.848;2024-01-06T05:10:48;24.23;;;13.63;;
41946;SDS011;27638;42.184;24.848;2024-01-06T05:13:14;46.25;;;22.35;;
41946;SDS011;27638;42.184;24.848;2024-01-06T05:15:39;25.33;;;16.10;;
41946;SDS011;27638;42.184;24.848;2024-01-06T05:18:05;21.10;;;13.48;;
41946;SDS011;27638;42.184;24.848;2024-01-06T05:20:30;22.35;;;13.85;;
41946;SDS011;27638;42.184;24.848;2024-01-06T05:22:56;22.88;;;14.07;;
41946;SDS011;27638;42.184;24.848;2024-01-06T05:25:21;30.30;;;16.75;;
41946;SDS011;27638;42.184;24.848;2024-01-06T05:27:47;29.55;;;15.82;;
41946;SDS011;27638;42.184;24.848;2024-01-06T05:30:12;21.95;;;13.98;;
41946;SDS011;27638;42.184;24.848;2024-01-06T05:32:38;20.10;;;12.75;;
41946;SDS011;27638;42.184;24.848;2024-01-06T05:35:03;25.83;;;12.73;;
41946;SDS011;27638;42.184;24.848;2024-01-06T05:37:29;24.15;;;14.15;;
41946;SDS011;27638;42.184;24.848;2024-01-06T05:39:56;31.83;;;18.35;;
41946;SDS011;27638;42.184;24.848;2024-01-06T05:42:23;38.92;;;20.60;;
41946;SDS011;27638;42.184;24.848;2024-01-06T05:44:48;32.22;;;18.10;;
41946;SDS011;27638;42.184;24.848;2024-01-06T05:47:14;25.05;;;15.80;;
41946;SDS011;27638;42.184;24.848;2024-01-06T05:49:43;43.92;;;21.73;;
41946;SDS011;27638;42.184;24.848;2024-01-06T05:52:09;38.00;;;21.02;;
41946;SDS011;27638;42.184;24.848;2024-01-06T05:54:35;35.00;;;18.40;;
41946;SDS011;27638;42.184;24.848;2024-01-06T05:57:00;44.47;;;21.90;;
41946;SDS011;27638;42.184;24.848;2024-01-06T05:59:26;33.05;;;19.23;;
41946;SDS011;27638;42.184;24.848;2024-01-06T06:01:51;38.70;;;22.20;;
41946;SDS011;27638;42.184;24.848;2024-01-06T06:04:17;31.27;;;19.75;;
41946;SDS011;27638;42.184;24.848;2024-01-06T06:06:44;28.50;;;17.27;;
41946;SDS011;27638;42.184;24.848;2024-01-06T06:09:09;32.15;;;19.85;;
41946;SDS011;27638;42.184;24.848;2024-01-06T06:11:35;25.70;;;16.15;;
41946;SDS011;27638;42.184;24.848;2024-01-06T06:14:01;32.53;;;18.08;;
41946;SDS011;27638;42.184;24.848;2024-01-06T06:16:28;38.03;;;25.02;;
41946;SDS011;27638;42.184;24.848;2024-01-06T06:18:54;39.42;;;24.85;;
41946;SDS011;27638;42.184;24.848;2024-01-06T06:21:20;43.30;;;24.55;;
41946;SDS011;27638;42.184;24.848;2024-01-06T06:23:45;39.30;;;24.02;;
41946;SDS011;27638;42.184;24.848;2024-01-06T06:26:11;40.30;;;23.48;;
41946;SDS011;27638;42.184;24.848;2024-01-06T06:28:37;46.97;;;26.45;;
41946;SDS011;27638;42.184;24.848;2024-01-06T06:31:02;51.67;;;26.42;;
41946;SDS011;27638;42.184;24.848;2024-01-06T06:33:28;48.55;;;25.58;;
41946;SDS011;27638;42.184;24.848;2024-01-06T06:35:54;53.35;;;26.77;;
41946;SDS011;27638;42.184;24.848;2024-01-06T06:38:20;45.05;;;24.67;;
41946;SDS011;27638;42.184;24.848;2024-01-06T06:40:46;33.17;;;21.67;;
41946;SDS011;27638;42.184;24.848;2024-01-06T06:43:12;33.25;;;20.85;;
41946;SDS011;27638;42.184;24.848;2024-01-06T06:45:38;23.65;;;15.35;;
41946;SDS011;27638;42.184;24.848;2024-01-06T06:48:04;22.15;;;14.63;;
41946;SDS011;27638;42.184;24.848;2024-01-06T06:50:29;20.52;;;14.02;;
41946;SDS011;27638;42.184;24.848;2024-01-06T06:52:55;22.80;;;14.20;;
41946;SDS011;27638;42.184;24.848;2024-01-06T06:55:20;20.50;;;12.85;;
41946;SDS011;27638;42.184;24.848;2024-01-06T06:57:46;19.75;;;12.73;;
41946;SDS011;27638;42.184;24.848;2024-01-06T07:00:11;20.35;;;11.57;;
41946;SDS011;27638;42.184;24.848;2024-01-06T07:02:37;20.45;;;12.90;;
41946;SDS011;27638;42.184;24.848;2024-01-06T07:05:03;21.45;;;13.88;;
41946;SDS011;27638;42.184;24.848;2024-01-06T07:07:32;22.45;;;16.15;;
41946;SDS011;27638;42.184;24.848;2024-01-06T07:09:58;19.48;;;11.50;;
41946;SDS011;27638;42.184;24.848;2024-01-06T07:12:26;21.73;;;12.95;;
41946;SDS011;27638;42.184;24.848;2024-01-06T07:14:52;19.15;;;12.48;;
41946;SDS011;27638;42.184;24.848;2024-01-06T07:17:18;22.02;;;11.77;;
41946;SDS011;27638;42.184;24.848;2024-01-06T07:19:43;27.23;;;14.98;;
41946;SDS011;27638;42.184;24.848;2024-01-06T07:22:09;25.65;;;14.55;;
41946;SDS011;27638;42.184;24.848;2024-01-06T07:24:34;19.75;;;13.10;;
41946;SDS011;27638;42.184;24.848;2024-01-06T07:27:01;23.45;;;13.90;;
41946;SDS011;27638;42.184;24.848;2024-01-06T07:29:28;49.08;;;23.65;;
41946;SDS011;27638;42.184;24.848;2024-01-06T07:31:53;55.30;;;31.38;;
41946;SDS011;27638;42.184;24.848;2024-01-06T07:34:19;77.57;;;44.33;;
41946;SDS011;27638;42.184;24.848;2024-01-06T07:36:44;74.55;;;43.58;;
41946;SDS011;27638;42.184;24.848;2024-01-06T07:39:10;74.93;;;42.97;;
41946;SDS011;27638;42.184;24.848;2024-01-06T07:41:35;73.03;;;42.10;;
41946;SDS011;27638;42.184;24.848;2024-01-06T07:44:01;81.90;;;43.97;;
41946;SDS011;27638;42.184;24.848;2024-01-06T07:46:27;97.07;;;47.10;;
41946;SDS011;27638;42.184;24.848;2024-01-06T07:48:53;81.97;;;39.97;;
41946;SDS011;27638;42.184;24.848;2024-01-06T07:51:19;76.70;;;38.63;;
41946;SDS011;27638;42.184;24.848;2024-01-06T07:53:45;64.28;;;34.05;;
41946;SDS011;27638;42.184;24.848;2024-01-06T07:56:10;54.72;;;28.30;;
41946;SDS011;27638;42.184;24.848;2024-01-06T07:58:36;47.47;;;31.38;;
41946;SDS011;27638;42.184;24.848;2024-01-06T08:01:01;46.55;;;31.33;;
41946;SDS011;27638;42.184;24.848;2024-01-06T08:03:27;41.75;;;29.55;;
41946;SDS011;27638;42.184;24.848;2024-01-06T08:05:52;42.65;;;28.75;;
41946;SDS011;27638;42.184;24.848;2024-01-06T08:08:19;40.85;;;26.83;;
41946;SDS011;27638;42.184;24.848;2024-01-06T08:10:44;27.75;;;20.73;;
41946;SDS011;27638;42.184;24.848;2024-01-06T08:13:10;134.15;;;65.90;;
41946;SDS011;27638;42.184;24.848;2024-01-06T08:15:36;151.65;;;72.18;;
41946;SDS011;27638;42.184;24.848;2024-01-06T08:18:01;72.20;;;38.05;;
41946;SDS011;27638;42.184;24.848;2024-01-06T08:20:28;53.47;;;30.58;;
41946;SDS011;27638;42.184;24.848;2024-01-06T08:22:54;69.47;;;39.88;;
41946;SDS011;27638;42.184;24.848;2024-01-06T08:25:20;91.85;;;48.10;;
41946;SDS011;27638;42.184;24.848;2024-01-06T08:27:45;77.40;;;41.38;;
41946;SDS011;27638;42.184;24.848;2024-01-06T08:30:11;40.00;;;23.25;;
41946;SDS011;27638;42.184;24.848;2024-01-06T08:32:37;56.58;;;30.23;;
41946;SDS011;27638;42.184;24.848;2024-01-06T08:35:03;57.60;;;32.97;;
41946;SDS011;27638;42.184;24.848;2024-01-06T08:37:29;47.72;;;27.63;;
41946;SDS011;27638;42.184;24.848;2024-01-06T08:39:54;29.45;;;18.60;;
41946;SDS011;27638;42.184;24.848;2024-01-06T08:42:20;28.35;;;17.45;;
41946;SDS011;27638;42.184;24.848;2024-01-06T08:44:46;23.55;;;15.45;;
41946;SDS011;27638;42.184;24.848;2024-01-06T08:47:12;24.52;;;15.90;;
41946;SDS011;27638;42.184;24.848;2024-01-06T08:49:38;30.92;;;17.38;;
41946;SDS011;27638;42.184;24.848;2024-01-06T08:52:03;28.15;;;19.35;;
41946;SDS011;27638;42.184;24.848;2024-01-06T08:54:31;30.27;;;18.85;;
41946;SDS011;27638;42.184;24.848;2024-01-06T08:56:57;39.08;;;24.08;;
41946;SDS011;27638;42.184;24.848;2024-01-06T08:59:22;39.35;;;20.63;;
41946;SDS011;27638;42.184;24.848;2024-01-06T09:01:48;35.80;;;21.40;;
41946;SDS011;27638;42.184;24.848;2024-01-06T09:04:13;41.83;;;23.90;;
41946;SDS011;27638;42.184;24.848;2024-01-06T09:06:39;41.40;;;23.40;;
41946;SDS011;27638;42.184;24.848;2024-01-06T09:09:06;42.70;;;23.25;;
41946;SDS011;27638;42.184;24.848;2024-01-06T09:11:33;43.67;;;26.85;;
41946;SDS011;27638;42.184;24.848;2024-01-06T09:13:58;58.20;;;36.10;;
41946;SDS011;27638;42.184;24.848;2024-01-06T09:16:24;61.65;;;38.47;;
41946;SDS011;27638;42.184;24.848;2024-01-06T09:18:50;41.42;;;28.23;;
41946;SDS011;27638;42.184;24.848;2024-01-06T09:21:15;33.50;;;21.98;;
41946;SDS011;27638;42.184;24.848;2024-01-06T09:23:42;30.85;;;19.00;;
41946;SDS011;27638;42.184;24.848;2024-01-06T09:26:08;24.45;;;17.70;;
41946;SDS011;27638;42.184;24.848;2024-01-06T09:28:34;28.25;;;17.15;;
41946;SDS011;27638;42.184;24.848;2024-01-06T09:30:59;23.88;;;16.42;;
41946;SDS011;27638;42.184;24.848;2024-01-06T09:33:25;25.65;;;16.52;;
41946;SDS011;27638;42.184;24.848;2024-01-06T09:35:51;32.90;;;20.63;;
41946;SDS011;27638;42.184;24.848;2024-01-06T09:38:16;40.65;;;23.27;;
41946;SDS011;27638;42.184;24.848;2024-01-06T09:40:43;34.20;;;19.88;;
41946;SDS011;27638;42.184;24.848;2024-01-06T09:43:11;31.48;;;20.17;;
41946;SDS011;27638;42.184;24.848;2024-01-06T09:45:40;28.77;;;18.88;;
41946;SDS011;27638;42.184;24.848;2024-01-06T09:48:10;29.58;;;17.98;;
41946;SDS011;27638;42.184;24.848;2024-01-06T09:50:40;26.38;;;15.05;;
41946;SDS011;27638;42.184;24.848;2024-01-06T09:53:08;21.02;;;13.10;;
41946;SDS011;27638;42.184;24.848;2024-01-06T09:55:36;25.02;;;15.48;;
41946;SDS011;27638;42.184;24.848;2024-01-06T09:58:02;28.15;;;14.70;;
41946;SDS011;27638;42.184;24.848;2024-01-06T10:00:28;19.95;;;12.35;;
41946;SDS011;27638;42.184;24.848;2024-01-06T10:02:53;19.27;;;11.93;;
41946;SDS011;27638;42.184;24.848;2024-01-06T10:05:20;22.95;;;15.20;;
41946;SDS011;27638;42.184;24.848;2024-01-06T10:07:46;21.17;;;12.77;;
41946;SDS011;27638;42.184;24.848;2024-01-06T10:10:12;22.85;;;13.05;;
41946;SDS011;27638;42.184;24.848;2024-01-06T10:12:38;21.80;;;13.45;;
41946;SDS011;27638;42.184;24.848;2024-01-06T10:15:07;19.63;;;12.77;;
41946;SDS011;27638;42.184;24.848;2024-01-06T10:17:36;24.10;;;13.45;;
41946;SDS011;27638;42.184;24.848;2024-01-06T10:20:05;23.27;;;14.25;;
41946;SDS011;27638;42.184;24.848;2024-01-06T10:22:37;24.30;;;13.73;;
41946;SDS011;27638;42.184;24.848;2024-01-06T10:25:08;21.92;;;13.02;;
41946;SDS011;27638;42.184;24.848;2024-01-06T10:27:38;23.42;;;14.10;;
41946;SDS011;27638;42.184;24.848;2024-01-06T10:30:08;21.77;;;14.07;;
41946;SDS011;27638;42.184;24.848;2024-01-06T10:32:35;21.67;;;13.82;;
41946;SDS011;27638;42.184;24.848;2024-01-06T10:35:01;23.85;;;13.68;;
41946;SDS011;27638;42.184;24.848;2024-01-06T10:37:28;21.67;;;13.48;;
41946;SDS011;27638;42.184;24.848;2024-01-06T10:40:13;20.40;;;13.20;;
41946;SDS011;27638;42.184;24.848;2024-01-06T10:42:42;22.90;;;14.40;;
41946;SDS011;27638;42.184;24.848;2024-01-06T10:45:09;23.73;;;15.52;;
41946;SDS011;27638;42.184;24.848;2024-01-06T10:47:36;22.70;;;14.55;;
41946;SDS011;27638;42.184;24.848;2024-01-06T10:50:03;30.35;;;17.42;;
41946;SDS011;27638;42.184;24.848;2024-01-06T10:52:29;30.05;;;16.58;;
41946;SDS011;27638;42.184;24.848;2024-01-06T10:54:55;27.63;;;15.63;;
41946;SDS011;27638;42.184;24.848;2024-01-06T10:57:21;26.13;;;15.27;;
41946;SDS011;27638;42.184;24.848;2024-01-06T10:59:52;24.30;;;15.48;;
41946;SDS011;27638;42.184;24.848;2024-01-06T11:02:18;24.73;;;14.88;;
41946;SDS011;27638;42.184;24.848;2024-01-06T11:04:47;23.60;;;15.63;;
41946;SDS011;27638;42.184;24.848;2024-01-06T11:07:13;23.75;;;16.52;;
41946;SDS011;27638;42.184;24.848;2024-01-06T11:09:47;24.40;;;15.23;;
41946;SDS011;27638;42.184;24.848;2024-01-06T11:12:17;25.10;;;14.55;;
41946;SDS011;27638;42.184;24.848;2024-01-06T11:14:43;22.80;;;13.70;;
41946;SDS011;27638;42.184;24.848;2024-01-06T11:17:10;21.08;;;13.18;;
41946;SDS011;27638;42.184;24.848;2024-01-06T11:24:52;22.60;;;14.63;;
41946;SDS011;27638;42.184;24.848;2024-01-06T11:27:27;24.75;;;14.68;;
41946;SDS011;27638;42.184;24.848;2024-01-06T11:29:54;26.95;;;15.13;;
41946;SDS011;27638;42.184;24.848;2024-01-06T11:32:30;23.85;;;14.32;;
41946;SDS011;27638;42.184;24.848;2024-01-06T11:35:07;27.00;;;14.45;;
41946;SDS011;27638;42.184;24.848;2024-01-06T11:40:09;26.08;;;14.80;;
41946;SDS011;27638;42.184;24.848;2024-01-06T11:42:40;21.47;;;14.13;;
41946;SDS011;27638;42.184;24.848;2024-01-06T11:45:09;21.13;;;15.18;;
41946;SDS011;27638;42.184;24.848;2024-01-06T11:47:35;24.25;;;14.75;;
41946;SDS011;27638;42.184;24.848;2024-01-06T11:50:00;24.40;;;15.07;;
41946;SDS011;27638;42.184;24.848;2024-01-06T11:52:30;25.67;;;15.15;;
41946;SDS011;27638;42.184;24.848;2024-01-06T11:54:56;24.20;;;14.93;;
41946;SDS011;27638;42.184;24.848;2024-01-06T11:57:22;26.70;;;16.70;;
41946;SDS011;27638;42.184;24.848;2024-01-06T11:59:48;28.98;;;18.02;;
41946;SDS011;27638;42.184;24.848;2024-01-06T12:02:14;24.58;;;16.45;;
41946;SDS011;27638;42.184;24.848;2024-01-06T12:04:45;28.50;;;17.35;;
41946;SDS011;27638;42.184;24.848;2024-01-06T12:07:15;26.85;;;16.67;;
41946;SDS011;27638;42.184;24.848;2024-01-06T12:09:40;29.13;;;17.35;;
41946;SDS011;27638;42.184;24.848;2024-01-06T12:12:06;24.40;;;16.30;;
41946;SDS011;27638;42.184;24.848;2024-01-06T12:14:32;26.90;;;16.40;;
41946;SDS011;27638;42.184;24.848;2024-01-06T12:16:58;29.90;;;16.00;;
41946;SDS011;27638;42.184;24.848;2024-01-06T12:19:28;29.75;;;15.65;;
41946;SDS011;27638;42.184;24.848;2024-01-06T12:21:55;18.73;;;12.60;;
41946;SDS011;27638;42.184;24.848;2024-01-06T12:24:21;29.08;;;17.75;;
41946;SDS011;27638;42.184;24.848;2024-01-06T12:26:47;29.58;;;17.00;;
41946;SDS011;27638;42.184;24.848;2024-01-06T12:29:13;27.67;;;17.75;;
41946;SDS011;27638;42.184;24.848;2024-01-06T12:31:40;26.73;;;16.58;;
41946;SDS011;27638;42.184;24.848;2024-01-06T12:34:06;28.77;;;16.90;;
41946;SDS011;27638;42.184;24.848;2024-01-06T12:36:38;26.40;;;15.25;;
41946;SDS011;27638;42.184;24.848;2024-01-06T12:39:04;22.92;;;15.73;;
41946;SDS011;27638;42.184;24.848;2024-01-06T12:41:30;24.73;;;14.98;;
41946;SDS011;27638;42.184;24.848;2024-01-06T12:44:00;25.83;;;14.50;;
41946;SDS011;27638;42.184;24.848;2024-01-06T12:46:26;21.95;;;14.77;;
41946;SDS011;27638;42.184;24.848;2024-01-06T12:48:52;25.77;;;15.18;;
41946;SDS011;27638;42.184;24.848;2024-01-06T12:51:17;24.58;;;14.48;;
41946;SDS011;27638;42.184;24.848;2024-01-06T12:53:43;23.58;;;14.65;;
41946;SDS011;27638;42.184;24.848;2024-01-06T12:56:08;25.92;;;14.35;;
41946;SDS011;27638;42.184;24.848;2024-01-06T12:58:34;22.33;;;14.63;;
41946;SDS011;27638;42.184;24.848;2024-01-06T13:00:59;21.00;;;13.13;;
41946;SDS011;27638;42.184;24.848;2024-01-06T13:03:25;23.85;;;13.50;;
41946;SDS011;27638;42.184;24.848;2024-01-06T13:05:50;21.17;;;14.05;;
41946;SDS011;27638;42.184;24.848;2024-01-06T13:08:16;26.05;;;15.23;;
41946;SDS011;27638;42.184;24.848;2024-01-06T13:10:42;23.13;;;14.77;;
41946;SDS011;27638;42.184;24.848;2024-01-06T13:13:07;26.83;;;15.82;;
41946;SDS011;27638;42.184;24.848;2024-01-06T13:15:32;27.30;;;17.55;;
41946;SDS011;27638;42.184;24.848;2024-01-06T13:17:58;37.13;;;24.38;;
41946;SDS011;27638;42.184;24.848;2024-01-06T13:20:23;39.25;;;24.00;;
41946;SDS011;27638;42.184;24.848;2024-01-06T13:22:49;35.83;;;20.73;;
41946;SDS011;27638;42.184;24.848;2024-01-06T13:25:16;50.20;;;24.65;;
41946;SDS011;27638;42.184;24.848;2024-01-06T13:27:42;57.67;;;28.33;;
41946;SDS011;27638;42.184;24.848;2024-01-06T13:30:07;66.63;;;34.00;;
41946;SDS011;27638;42.184;24.848;2024-01-06T13:32:33;52.78;;;26.70;;
41946;SDS011;27638;42.184;24.848;2024-01-06T13:34:59;27.70;;;16.50;;
41946;SDS011;27638;42.184;24.848;2024-01-06T13:37:29;30.35;;;16.95;;
41946;SDS011;27638;42.184;24.848;2024-01-06T13:39:56;27.80;;;15.95;;
41946;SDS011;27638;42.184;24.848;2024-01-06T13:42:22;23.35;;;14.52;;
41946;SDS011;27638;42.184;24.848;2024-01-06T13:44:47;21.70;;;13.45;;
41946;SDS011;27638;42.184;24.848;2024-01-06T13:47:15;20.88;;;14.30;;
41946;SDS011;27638;42.184;24.848;2024-01-06T13:49:41;19.70;;;10.80;;
41946;SDS011;27638;42.184;24.848;2024-01-06T13:52:06;17.92;;;11.27;;
41946;SDS011;27638;42.184;24.848;2024-01-06T13:54:35;17.30;;;10.10;;
41946;SDS011;27638;42.184;24.848;2024-01-06T13:57:01;16.15;;;9.93;;
41946;SDS011;27638;42.184;24.848;2024-01-06T13:59:27;14.05;;;10.23;;
41946;SDS011;27638;42.184;24.848;2024-01-06T14:01:55;15.57;;;9.32;;
41946;SDS011;27638;42.184;24.848;2024-01-06T14:04:21;17.48;;;10.45;;
41946;SDS011;27638;42.184;24.848;2024-01-06T14:06:48;16.83;;;10.27;;
41946;SDS011;27638;42.184;24.848;2024-01-06T14:09:20;15.45;;;10.00;;
41946;SDS011;27638;42.184;24.848;2024-01-06T14:11:46;15.45;;;9.77;;